sensor_id;sensor_type;location;lat;lon;timestamp;noise_LAeq;noise_LA_min;noise_LA_max;noise_LA01;noise_LA95
17594;Laerm;8916;47.086;15.920;2024-02-15T00:01:29;49.38;48.29;50.34;;
17594;Laerm;8916;47.086;15.920;2024-02-15T00:04:00;49.38;48.12;50.53;;
17594;Laerm;8916;47.086;15.920;2024-02-15T00:06:29;49.38;48.23;50.38;;
17594;Laerm;8916;47.086;15.920;2024-02-15T00:08:58;49.38;48.21;50.62;;
17594;Laerm;8916;47.086;15.920;2024-02-15T00:11:28;49.37;48.29;50.45;;
17594;Laerm;8916;47.086;15.920;2024-02-15T00:13:57;49.38;48.29;50.38;;
17594;Laerm;8916;47.086;15.920;2024-02-15T00:16:26;49.38;48.29;50.44;;
17594;Laerm;8916;47.086;15.920;2024-02-15T00:18:55;49.39;48.37;50.56;;
17594;Laerm;8916;47.086;15.920;2024-02-15T00:21:26;49.37;48.31;50.39;;
17594;Laerm;8916;47.086;15.920;2024-02-15T00:23:55;49.38;48.25;50.63;;
17594;Laerm;8916;47.086;15.920;2024-02-15T00:26:27;49.38;47.83;50.56;;
17594;Laerm;8916;47.086;15.920;2024-02-15T00:28:56;49.38;48.23;50.39;;
17594;Laerm;8916;47.086;15.920;2024-02-15T00:31:26;49.38;47.96;50.42;;
17594;Laerm;8916;47.086;15.920;2024-02-15T00:33:55;49.38;48.00;50.42;;
17594;Laerm;8916;47.086;15.920;2024-02-15T00:36:26;49.38;48.02;50.46;;
17594;Laerm;8916;47.086;15.920;2024-02-15T00:38:55;49.37;48.36;50.46;;
17594;Laerm;8916;47.086;15.920;2024-02-15T00:41:25;49.38;48.08;50.53;;
17594;Laerm;8916;47.086;15.920;2024-02-15T00:43:54;49.38;47.83;50.55;;
17594;Laerm;8916;47.086;15.920;2024-02-15T00:46:23;49.38;48.23;50.53;;
17594;Laerm;8916;47.086;15.920;2024-02-15T00:48:54;49.38;48.36;50.44;;
17594;Laerm;8916;47.086;15.920;2024-02-15T00:51:26;49.38;48.28;50.50;;
17594;Laerm;8916;47.086;15.920;2024-02-15T00:53:55;49.39;48.31;50.45;;
17594;Laerm;8916;47.086;15.920;2024-02-15T00:56:24;49.39;48.13;50.53;;
17594;Laerm;8916;47.086;15.920;2024-02-15T00:58:54;49.39;48.36;50.56;;
17594;Laerm;8916;47.086;15.920;2024-02-15T01:01:23;49.39;48.21;50.33;;
17594;Laerm;8916;47.086;15.920;2024-02-15T01:03:52;49.39;48.16;50.56;;
17594;Laerm;8916;47.086;15.920;2024-02-15T01:06:21;49.40;48.12;50.55;;
17594;Laerm;8916;47.086;15.920;2024-02-15T01:08:51;49.39;48.26;50.66;;
17594;Laerm;8916;47.086;15.920;2024-02-15T01:11:21;49.40;48.38;50.44;;
17594;Laerm;8916;47.086;15.920;2024-02-15T01:13:50;49.40;48.36;50.56;;
17594;Laerm;8916;47.086;15.920;2024-02-15T01:16:20;49.39;48.36;50.65;;
17594;Laerm;8916;47.086;15.920;2024-02-15T01:18:50;49.39;48.03;50.57;;
17594;Laerm;8916;47.086;15.920;2024-02-15T01:21:19;49.40;48.37;50.43;;
17594;Laerm;8916;47.086;15.920;2024-02-15T01:23:51;49.40;48.25;50.56;;
17594;Laerm;8916;47.086;15.920;2024-02-15T01:26:21;49.40;48.31;50.48;;
17594;Laerm;8916;47.086;15.920;2024-02-15T01:28:51;49.40;48.37;50.55;;
17594;Laerm;8916;47.086;15.920;2024-02-15T01:31:21;49.40;48.34;50.53;;
17594;Laerm;8916;47.086;15.920;2024-02-15T01:33:50;49.40;48.39;50.68;;
17594;Laerm;8916;47.086;15.920;2024-02-15T01:36:19;49.40;48.28;50.66;;
17594;Laerm;8916;47.086;15.920;2024-02-15T01:38:48;49.41;48.32;50.52;;
17594;Laerm;8916;47.086;15.920;2024-02-15T01:41:19;49.41;48.32;50.50;;
17594;Laerm;8916;47.086;15.920;2024-02-15T01:43:48;49.40;48.45;50.40;;
17594;Laerm;8916;47.086;15.920;2024-02-15T01:46:17;49.39;48.21;50.39;;
17594;Laerm;8916;47.086;15.920;2024-02-15T01:48:48;49.40;48.02;50.61;;
17594;Laerm;8916;47.086;15.920;2024-02-15T01:51:18;49.40;48.13;50.68;;
17594;Laerm;8916;47.086;15.920;2024-02-15T01:53:47;49.39;48.16;50.41;;
17594;Laerm;8916;47.086;15.920;2024-02-15T01:56:18;49.40;48.23;50.54;;
17594;Laerm;8916;47.086;15.920;2024-02-15T01:58:48;49.41;48.23;51.02;;
17594;Laerm;8916;47.086;15.920;2024-02-15T02:01:17;49.38;47.79;50.78;;
17594;Laerm;8916;47.086;15.920;2024-02-15T02:03:46;49.39;48.37;50.63;;
17594;Laerm;8916;47.086;15.920;2024-02-15T02:06:16;49.38;48.21;50.41;;
17594;Laerm;8916;47.086;15.920;2024-02-15T02:08:45;49.40;48.29;50.34;;
17594;Laerm;8916;47.086;15.920;2024-02-15T02:11:14;49.39;48.20;50.44;;
17594;Laerm;8916;47.086;15.920;2024-02-15T02:13:45;49.40;48.37;50.84;;
17594;Laerm;8916;47.086;15.920;2024-02-15T02:16:26;49.39;48.18;50.50;;
17594;Laerm;8916;47.086;15.920;2024-02-15T02:18:56;49.39;48.16;50.64;;
17594;Laerm;8916;47.086;15.920;2024-02-15T02:21:27;49.42;47.96;50.78;;
17594;Laerm;8916;47.086;15.920;2024-02-15T02:23:57;49.39;48.23;50.70;;
17594;Laerm;8916;47.086;15.920;2024-02-15T02:26:28;49.38;48.18;50.68;;
17594;Laerm;8916;47.086;15.920;2024-02-15T02:29:01;49.38;48.23;50.47;;
17594;Laerm;8916;47.086;15.920;2024-02-15T02:31:33;49.37;48.25;50.48;;
17594;Laerm;8916;47.086;15.920;2024-02-15T02:34:03;49.37;48.37;50.34;;
17594;Laerm;8916;47.086;15.920;2024-02-15T02:36:34;49.38;48.10;50.45;;
17594;Laerm;8916;47.086;15.920;2024-02-15T02:39:04;49.37;48.13;50.66;;
17594;Laerm;8916;47.086;15.920;2024-02-15T02:41:36;49.37;48.29;50.51;;
17594;Laerm;8916;47.086;15.920;2024-02-15T02:44:05;49.37;48.18;50.48;;
17594;Laerm;8916;47.086;15.920;2024-02-15T02:46:34;49.35;48.21;50.56;;
17594;Laerm;8916;47.086;15.920;2024-02-15T02:49:04;49.36;48.37;50.38;;
17594;Laerm;8916;47.086;15.920;2024-02-15T02:51:33;49.36;48.26;50.42;;
17594;Laerm;8916;47.086;15.920;2024-02-15T02:54:02;49.36;48.23;50.48;;
17594;Laerm;8916;47.086;15.920;2024-02-15T02:56:33;49.35;48.03;50.41;;
17594;Laerm;8916;47.086;15.920;2024-02-15T02:59:03;49.35;48.16;50.57;;
17594;Laerm;8916;47.086;15.920;2024-02-15T03:01:34;49.36;48.21;50.51;;
17594;Laerm;8916;47.086;15.920;2024-02-15T03:04:04;49.36;48.03;50.64;;
17594;Laerm;8916;47.086;15.920;2024-02-15T03:06:33;49.36;48.28;50.41;;
17594;Laerm;8916;47.086;15.920;2024-02-15T03:09:02;49.36;48.37;50.52;;
17594;Laerm;8916;47.086;15.920;2024-02-15T03:11:35;49.36;48.26;50.33;;
17594;Laerm;8916;47.086;15.920;2024-02-15T03:14:05;49.37;48.15;50.56;;
17594;Laerm;8916;47.086;15.920;2024-02-15T03:16:34;49.36;48.18;50.68;;
17594;Laerm;8916;47.086;15.920;2024-02-15T03:19:03;49.36;48.31;50.64;;
17594;Laerm;8916;47.086;15.920;2024-02-15T03:21:32;49.35;48.23;50.56;;
17594;Laerm;8916;47.086;15.920;2024-02-15T03:24:01;49.35;48.31;50.34;;
17594;Laerm;8916;47.086;15.920;2024-02-15T03:26:31;49.36;48.32;51.03;;
17594;Laerm;8916;47.086;15.920;2024-02-15T03:29:06;49.36;48.34;50.59;;
17594;Laerm;8916;47.086;15.920;2024-02-15T03:31:37;49.35;48.25;50.61;;
17594;Laerm;8916;47.086;15.920;2024-02-15T03:34:06;49.35;48.21;50.69;;
17594;Laerm;8916;47.086;15.920;2024-02-15T03:36:38;49.35;48.34;50.36;;
17594;Laerm;8916;47.086;15.920;2024-02-15T03:39:07;49.35;48.16;50.41;;
17594;Laerm;8916;47.086;15.920;2024-02-15T03:41:37;49.35;48.28;50.56;;
17594;Laerm;8916;47.086;15.920;2024-02-15T03:44:07;49.35;48.26;50.85;;
17594;Laerm;8916;47.086;15.920;2024-02-15T03:46:38;49.35;48.16;51.08;;
17594;Laerm;8916;47.086;15.920;2024-02-15T03:49:07;49.35;48.25;50.76;;
17594;Laerm;8916;47.086;15.920;2024-02-15T03:51:39;49.35;48.13;50.40;;
17594;Laerm;8916;47.086;15.920;2024-02-15T03:54:08;49.34;48.18;50.44;;
17594;Laerm;8916;47.086;15.920;2024-02-15T03:56:41;49.35;47.93;50.57;;
17594;Laerm;8916;47.086;15.920;2024-02-15T03:59:16;49.36;48.36;50.32;;
17594;Laerm;8916;47.086;15.920;2024-02-15T04:01:45;49.35;48.05;50.51;;
17594;Laerm;8916;47.086;15.920;2024-02-15T04:04:14;49.35;48.13;50.50;;
17594;Laerm;8916;47.086;15.920;2024-02-15T04:06:43;49.34;48.26;50.43;;
17594;Laerm;8916;47.086;15.920;2024-02-15T04:09:13;49.34;48.29;50.57;;
17594;Laerm;8916;47.086;15.920;2024-02-15T04:11:42;49.33;48.16;50.47;;
17594;Laerm;8916;47.086;15.920;2024-02-15T04:14:11;49.33;48.20;50.66;;
17594;Laerm;8916;47.086;15.920;2024-02-15T04:16:41;49.34;48.25;50.47;;
17594;Laerm;8916;47.086;15.920;2024-02-15T04:19:11;49.33;48.08;50.32;;
17594;Laerm;8916;47.086;15.920;2024-02-15T04:21:40;49.33;48.31;50.40;;
17594;Laerm;8916;47.086;15.920;2024-02-15T04:24:12;49.33;48.31;50.42;;
17594;Laerm;8916;47.086;15.920;2024-02-15T04:26:42;49.33;48.29;50.44;;
17594;Laerm;8916;47.086;15.920;2024-02-15T04:29:11;49.33;48.21;50.49;;
17594;Laerm;8916;47.086;15.920;2024-02-15T04:31:42;49.32;48.08;50.34;;
17594;Laerm;8916;47.086;15.920;2024-02-15T04:34:11;49.33;48.28;50.60;;
17594;Laerm;8916;47.086;15.920;2024-02-15T04:36:40;49.34;48.34;50.47;;
17594;Laerm;8916;47.086;15.920;2024-02-15T04:39:10;49.34;48.26;50.29;;
17594;Laerm;8916;47.086;15.920;2024-02-15T04:41:46;49.33;48.28;50.52;;
17594;Laerm;8916;47.086;15.920;2024-02-15T04:44:15;49.34;48.21;50.41;;
17594;Laerm;8916;47.086;15.920;2024-02-15T04:46:49;49.34;48.37;50.49;;
17594;Laerm;8916;47.086;15.920;2024-02-15T04:49:18;49.34;48.05;50.36;;
17594;Laerm;8916;47.086;15.920;2024-02-15T04:51:47;49.33;47.98;50.43;;
17594;Laerm;8916;47.086;15.920;2024-02-15T04:54:16;49.34;48.34;50.32;;
17594;Laerm;8916;47.086;15.920;2024-02-15T04:56:46;49.34;48.20;50.35;;
17594;Laerm;8916;47.086;15.920;2024-02-15T04:59:15;49.33;48.21;50.48;;
17594;Laerm;8916;47.086;15.920;2024-02-15T05:01:45;49.33;48.31;50.40;;
17594;Laerm;8916;47.086;15.920;2024-02-15T05:04:15;49.33;48.15;50.47;;
17594;Laerm;8916;47.086;15.920;2024-02-15T05:06:45;49.33;48.20;50.25;;
17594;Laerm;8916;47.086;15.920;2024-02-15T05:09:14;49.33;48.31;50.68;;
17594;Laerm;8916;47.086;15.920;2024-02-15T05:11:46;49.33;48.10;50.33;;
17594;Laerm;8916;47.086;15.920;2024-02-15T05:14:16;49.33;48.28;50.39;;
17594;Laerm;8916;47.086;15.920;2024-02-15T05:16:47;49.33;48.20;50.30;;
17594;Laerm;8916;47.086;15.920;2024-02-15T05:19:18;49.33;48.26;50.53;;
17594;Laerm;8916;47.086;15.920;2024-02-15T05:21:47;49.33;48.31;50.46;;
17594;Laerm;8916;47.086;15.920;2024-02-15T05:24:17;49.33;48.21;50.35;;
17594;Laerm;8916;47.086;15.920;2024-02-15T05:26:47;49.33;48.28;50.40;;
17594;Laerm;8916;47.086;15.920;2024-02-15T05:29:18;49.33;48.16;50.50;;
17594;Laerm;8916;47.086;15.920;2024-02-15T05:31:48;49.32;48.20;50.50;;
17594;Laerm;8916;47.086;15.920;2024-02-15T05:34:20;49.33;48.39;50.52;;
17594;Laerm;8916;47.086;15.920;2024-02-15T05:36:50;49.33;48.23;50.36;;
17594;Laerm;8916;47.086;15.920;2024-02-15T05:39:19;49.34;47.98;50.46;;
17594;Laerm;8916;47.086;15.920;2024-02-15T05:41:49;49.33;48.36;50.45;;
17594;Laerm;8916;47.086;15.920;2024-02-15T05:44:19;49.34;48.32;50.36;;
17594;Laerm;8916;47.086;15.920;2024-02-15T05:46:48;49.33;48.32;50.45;;
17594;Laerm;8916;47.086;15.920;2024-02-15T05:49:17;49.33;48.34;50.35;;
17594;Laerm;8916;47.086;15.920;2024-02-15T05:51:48;49.33;48.28;50.56;;
17594;Laerm;8916;47.086;15.920;2024-02-15T05:54:18;49.32;48.34;50.54;;
17594;Laerm;8916;47.086;15.920;2024-02-15T05:56:47;49.32;47.93;50.42;;
17594;Laerm;8916;47.086;15.920;2024-02-15T05:59:20;49.31;48.16;50.48;;
17594;Laerm;8916;47.086;15.920;2024-02-15T06:01:49;49.32;48.13;50.41;;
17594;Laerm;8916;47.086;15.920;2024-02-15T06:04:18;49.32;48.18;50.37;;
17594;Laerm;8916;47.086;15.920;2024-02-15T06:06:49;49.32;48.26;50.56;;
17594;Laerm;8916;47.086;15.920;2024-02-15T06:09:18;49.32;48.07;50.35;;
17594;Laerm;8916;47.086;15.920;2024-02-15T06:11:50;49.32;48.05;50.44;;
17594;Laerm;8916;47.086;15.920;2024-02-15T06:14:23;49.32;48.13;50.37;;
17594;Laerm;8916;47.086;15.920;2024-02-15T06:16:52;49.31;48.21;50.42;;
17594;Laerm;8916;47.086;15.920;2024-02-15T06:19:23;49.31;48.15;50.46;;
17594;Laerm;8916;47.086;15.920;2024-02-15T06:21:54;49.32;48.02;50.37;;
17594;Laerm;8916;47.086;15.920;2024-02-15T06:24:23;49.31;48.23;50.54;;
17594;Laerm;8916;47.086;15.920;2024-02-15T06:26:53;49.30;48.20;50.39;;
17594;Laerm;8916;47.086;15.920;2024-02-15T06:29:27;49.31;48.20;50.24;;
17594;Laerm;8916;47.086;15.920;2024-02-15T06:32:14;49.31;48.26;50.29;;
17594;Laerm;8916;47.086;15.920;2024-02-15T06:35:00;49.31;48.26;50.63;;
17594;Laerm;8916;47.086;15.920;2024-02-15T06:37:48;49.31;48.18;50.55;;
17594;Laerm;8916;47.086;15.920;2024-02-15T06:40:34;49.30;48.15;50.35;;
17594;Laerm;8916;47.086;15.920;2024-02-15T06:43:03;49.30;48.26;50.42;;
17594;Laerm;8916;47.086;15.920;2024-02-15T06:45:32;49.29;48.21;50.40;;
17594;Laerm;8916;47.086;15.920;2024-02-15T06:48:05;49.30;48.20;50.32;;
17594;Laerm;8916;47.086;15.920;2024-02-15T06:50:35;49.28;48.08;50.29;;
17594;Laerm;8916;47.086;15.920;2024-02-15T06:53:06;49.29;48.02;50.34;;
17594;Laerm;8916;47.086;15.920;2024-02-15T06:55:39;49.29;48.28;50.45;;
17594;Laerm;8916;47.086;15.920;2024-02-15T06:58:10;49.28;48.16;50.48;;
17594;Laerm;8916;47.086;15.920;2024-02-15T07:00:41;49.28;48.23;50.41;;
17594;Laerm;8916;47.086;15.920;2024-02-15T07:03:10;49.28;48.21;50.45;;
17594;Laerm;8916;47.086;15.920;2024-02-15T07:05:40;49.28;48.32;50.38;;
17594;Laerm;8916;47.086;15.920;2024-02-15T07:08:11;49.27;48.29;50.37;;
17594;Laerm;8916;47.086;15.920;2024-02-15T07:10:40;49.26;48.25;50.40;;
17594;Laerm;8916;47.086;15.920;2024-02-15T07:13:10;49.27;48.21;50.39;;
17594;Laerm;8916;47.086;15.920;2024-02-15T07:15:39;49.25;48.12;50.40;;
17594;Laerm;8916;47.086;15.920;2024-02-15T07:18:09;49.26;48.05;50.43;;
17594;Laerm;8916;47.086;15.920;2024-02-15T07:20:39;49.25;47.98;50.31;;
17594;Laerm;8916;47.086;15.920;2024-02-15T07:23:11;49.25;48.12;50.31;;
17594;Laerm;8916;47.086;15.920;2024-02-15T07:25:40;49.24;48.05;50.56;;
17594;Laerm;8916;47.086;15.920;2024-02-15T07:28:10;49.22;48.07;50.53;;
17594;Laerm;8916;47.086;15.920;2024-02-15T07:30:39;49.23;48.10;50.66;;
17594;Laerm;8916;47.086;15.920;2024-02-15T07:33:08;49.23;48.13;50.35;;
17594;Laerm;8916;47.086;15.920;2024-02-15T07:35:38;49.23;48.07;50.31;;
17594;Laerm;8916;47.086;15.920;2024-02-15T07:38:07;49.22;47.98;50.56;;
17594;Laerm;8916;47.086;15.920;2024-02-15T07:40:40;49.21;48.08;50.55;;
17594;Laerm;8916;47.086;15.920;2024-02-15T07:43:09;49.21;48.13;50.24;;
17594;Laerm;8916;47.086;15.920;2024-02-15T07:45:38;49.21;48.08;50.42;;
17594;Laerm;8916;47.086;15.920;2024-02-15T07:48:07;49.20;48.05;50.30;;
17594;Laerm;8916;47.086;15.920;2024-02-15T07:50:37;49.19;48.07;50.38;;
17594;Laerm;8916;47.086;15.920;2024-02-15T07:53:08;49.21;48.21;50.48;;
17594;Laerm;8916;47.086;15.920;2024-02-15T07:55:39;49.19;48.18;50.31;;
17594;Laerm;8916;47.086;15.920;2024-02-15T07:58:09;49.19;48.21;50.46;;
17594;Laerm;8916;47.086;15.920;2024-02-15T08:00:38;49.18;48.12;50.39;;
17594;Laerm;8916;47.086;15.920;2024-02-15T08:03:08;49.18;47.95;50.47;;
17594;Laerm;8916;47.086;15.920;2024-02-15T08:05:39;49.18;48.02;50.19;;
17594;Laerm;8916;47.086;15.920;2024-02-15T08:08:08;49.19;48.10;50.25;;
17594;Laerm;8916;47.086;15.920;2024-02-15T08:10:37;49.17;48.07;50.21;;
17594;Laerm;8916;47.086;15.920;2024-02-15T08:13:08;49.17;48.07;50.35;;
17594;Laerm;8916;47.086;15.920;2024-02-15T08:15:38;49.17;48.18;50.39;;
17594;Laerm;8916;47.086;15.920;2024-02-15T08:18:07;49.17;48.07;50.27;;
17594;Laerm;8916;47.086;15.920;2024-02-15T08:20:38;49.16;48.03;50.62;;
17594;Laerm;8916;47.086;15.920;2024-02-15T08:23:08;49.16;47.81;50.44;;
17594;Laerm;8916;47.086;15.920;2024-02-15T08:25:38;49.16;48.03;50.51;;
17594;Laerm;8916;47.086;15.920;2024-02-15T08:28:10;49.16;48.03;50.30;;
17594;Laerm;8916;47.086;15.920;2024-02-15T08:30:41;49.15;47.96;50.31;;
17594;Laerm;8916;47.086;15.920;2024-02-15T08:33:11;49.14;47.93;50.71;;
17594;Laerm;8916;47.086;15.920;2024-02-15T08:35:40;49.14;48.05;50.46;;
17594;Laerm;8916;47.086;15.920;2024-02-15T08:38:10;49.14;48.05;50.52;;
17594;Laerm;8916;47.086;15.920;2024-02-15T08:40:39;49.14;48.03;50.24;;
17594;Laerm;8916;47.086;15.920;2024-02-15T08:43:10;49.12;48.12;50.31;;
17594;Laerm;8916;47.086;15.920;2024-02-15T08:45:40;49.09;47.90;50.14;;
17594;Laerm;8916;47.086;15.920;2024-02-15T08:48:10;49.06;48.05;50.22;;
17594;Laerm;8916;47.086;15.920;2024-02-15T08:50:40;49.05;47.91;50.13;;
17594;Laerm;8916;47.086;15.920;2024-02-15T08:53:10;49.03;47.93;50.27;;
17594;Laerm;8916;47.086;15.920;2024-02-15T08:55:39;48.99;47.95;50.14;;
17594;Laerm;8916;47.086;15.920;2024-02-15T08:58:10;49.01;47.77;50.23;;
17594;Laerm;8916;47.086;15.920;2024-02-15T09:00:39;49.02;48.02;50.33;;
17594;Laerm;8916;47.086;15.920;2024-02-15T09:03:12;48.89;47.77;50.11;;
17594;Laerm;8916;47.086;15.920;2024-02-15T09:05:42;48.86;47.67;50.08;;
17594;Laerm;8916;47.086;15.920;2024-02-15T09:08:11;48.85;47.79;50.14;;
17594;Laerm;8916;47.086;15.920;2024-02-15T09:10:41;48.80;47.61;50.18;;
17594;Laerm;8916;47.086;15.920;2024-02-15T09:13:12;48.78;47.48;49.97;;
17594;Laerm;8916;47.086;15.920;2024-02-15T09:15:42;48.75;47.57;52.74;;
17594;Laerm;8916;47.086;15.920;2024-02-15T09:18:12;48.80;47.65;50.22;;
17594;Laerm;8916;47.086;15.920;2024-02-15T09:20:41;48.85;47.65;50.46;;
17594;Laerm;8916;47.086;15.920;2024-02-15T09:23:12;48.88;47.79;51.57;;
17594;Laerm;8916;47.086;15.920;2024-02-15T09:25:43;48.90;47.90;50.22;;
17594;Laerm;8916;47.086;15.920;2024-02-15T09:28:13;48.88;47.91;50.11;;
17594;Laerm;8916;47.086;15.920;2024-02-15T09:30:42;48.85;47.68;51.35;;
17594;Laerm;8916;47.086;15.920;2024-02-15T09:33:15;48.81;47.65;51.64;;
17594;Laerm;8916;47.086;15.920;2024-02-15T09:35:44;48.79;47.65;50.49;;
17594;Laerm;8916;47.086;15.920;2024-02-15T09:38:14;48.81;47.70;52.29;;
17594;Laerm;8916;47.086;15.920;2024-02-15T09:40:48;48.81;47.55;50.08;;
17594;Laerm;8916;47.086;15.920;2024-02-15T09:43:19;48.80;47.50;50.00;;
17594;Laerm;8916;47.086;15.920;2024-02-15T09:45:50;48.79;47.72;53.42;;
17594;Laerm;8916;47.086;15.920;2024-02-15T09:48:24;48.77;47.34;55.58;;
17594;Laerm;8916;47.086;15.920;2024-02-15T09:50:54;49.36;47.57;64.88;;
17594;Laerm;8916;47.086;15.920;2024-02-15T09:53:26;49.33;47.86;59.09;;
17594;Laerm;8916;47.086;15.920;2024-02-15T09:55:57;49.45;48.13;53.49;;
17594;Laerm;8916;47.086;15.920;2024-02-15T09:58:34;49.54;48.03;53.29;;
17594;Laerm;8916;47.086;15.920;2024-02-15T10:01:04;49.37;48.02;51.43;;
17594;Laerm;8916;47.086;15.920;2024-02-15T10:03:38;49.33;48.20;52.23;;
17594;Laerm;8916;47.086;15.920;2024-02-15T10:06:09;49.33;47.93;51.67;;
17594;Laerm;8916;47.086;15.920;2024-02-15T10:08:38;49.39;48.08;54.14;;
17594;Laerm;8916;47.086;15.920;2024-02-15T10:11:08;49.37;48.10;53.45;;
17594;Laerm;8916;47.086;15.920;2024-02-15T10:13:39;49.37;48.02;53.76;;
17594;Laerm;8916;47.086;15.920;2024-02-15T10:16:17;49.34;47.81;53.17;;
17594;Laerm;8916;47.086;15.920;2024-02-15T10:18:47;49.41;48.05;52.80;;
17594;Laerm;8916;47.086;15.920;2024-02-15T10:21:25;49.86;47.76;55.16;;
17594;Laerm;8916;47.086;15.920;2024-02-15T10:24:06;50.18;47.88;55.30;;
17594;Laerm;8916;47.086;15.920;2024-02-15T10:26:36;49.60;47.74;55.79;;
17594;Laerm;8916;47.086;15.920;2024-02-15T10:29:09;49.45;47.84;53.64;;
17594;Laerm;8916;47.086;15.920;2024-02-15T10:31:51;49.73;47.72;55.46;;
17594;Laerm;8916;47.086;15.920;2024-02-15T10:34:21;51.81;47.59;57.70;;
17594;Laerm;8916;47.086;15.920;2024-02-15T10:36:52;52.01;47.63;58.38;;
17594;Laerm;8916;47.086;15.920;2024-02-15T10:39:23;51.54;47.90;57.42;;
17594;Laerm;8916;47.086;15.920;2024-02-15T10:41:54;51.01;47.98;56.30;;
17594;Laerm;8916;47.086;15.920;2024-02-15T10:44:27;50.77;47.70;55.62;;
17594;Laerm;8916;47.086;15.920;2024-02-15T10:46:56;50.94;47.96;56.35;;
17594;Laerm;8916;47.086;15.920;2024-02-15T10:49:27;51.44;48.15;56.07;;
17594;Laerm;8916;47.086;15.920;2024-02-15T10:51:58;51.42;48.16;56.06;;
17594;Laerm;8916;47.086;15.920;2024-02-15T10:54:41;49.64;47.81;56.10;;
17594;Laerm;8916;47.086;15.920;2024-02-15T10:57:12;49.02;47.72;53.35;;
17594;Laerm;8916;47.086;15.920;2024-02-15T10:59:54;49.02;47.90;53.05;;
17594;Laerm;8916;47.086;15.920;2024-02-15T11:02:30;49.02;47.91;52.98;;
17594;Laerm;8916;47.086;15.920;2024-02-15T11:05:03;49.22;47.57;53.24;;
17594;Laerm;8916;47.086;15.920;2024-02-15T11:07:38;49.25;47.86;53.07;;
17594;Laerm;8916;47.086;15.920;2024-02-15T11:10:09;49.37;48.05;53.63;;
17594;Laerm;8916;47.086;15.920;2024-02-15T11:12:39;49.30;47.76;56.79;;
17594;Laerm;8916;47.086;15.920;2024-02-15T11:15:44;49.24;47.81;54.65;;
17594;Laerm;8916;47.086;15.920;2024-02-15T11:18:43;50.28;47.81;63.42;;
17594;Laerm;8916;47.086;15.920;2024-02-15T11:21:15;49.38;47.77;55.04;;
17594;Laerm;8916;47.086;15.920;2024-02-15T11:23:45;49.25;47.34;53.45;;
17594;Laerm;8916;47.086;15.920;2024-02-15T11:26:44;49.81;47.84;66.57;;
17594;Laerm;8916;47.086;15.920;2024-02-15T11:29:51;50.00;48.13;62.91;;
17594;Laerm;8916;47.086;15.920;2024-02-15T11:32:43;49.87;48.45;58.63;;
17594;Laerm;8916;47.086;15.920;2024-02-15T11:35:14;49.79;47.67;64.59;;
17594;Laerm;8916;47.086;15.920;2024-02-15T11:37:58;50.10;47.63;66.43;;
17594;Laerm;8916;47.086;15.920;2024-02-15T11:41:03;49.25;47.74;59.21;;
17594;Laerm;8916;47.086;15.920;2024-02-15T11:43:53;49.19;47.84;58.74;;
17594;Laerm;8916;47.086;15.920;2024-02-15T11:46:27;50.32;47.83;59.52;;
17594;Laerm;8916;47.086;15.920;2024-02-15T11:49:01;50.20;47.46;60.03;;
17594;Laerm;8916;47.086;15.920;2024-02-15T11:51:34;49.43;47.70;58.19;;
17594;Laerm;8916;47.086;15.920;2024-02-15T11:54:11;49.37;47.70;60.36;;
17594;Laerm;8916;47.086;15.920;2024-02-15T11:56:54;48.98;47.79;61.01;;
17594;Laerm;8916;47.086;15.920;2024-02-15T11:59:42;49.21;47.59;60.91;;
17594;Laerm;8916;47.086;15.920;2024-02-15T12:02:22;49.23;47.59;60.73;;
17594;Laerm;8916;47.086;15.920;2024-02-15T12:05:11;49.30;47.72;60.93;;
17594;Laerm;8916;47.086;15.920;2024-02-15T12:07:59;48.83;47.54;60.28;;
17594;Laerm;8916;47.086;15.920;2024-02-15T12:10:57;48.92;47.62;60.68;;
17594;Laerm;8916;47.086;15.920;2024-02-15T12:13:50;48.86;47.62;60.35;;
17594;Laerm;8916;47.086;15.920;2024-02-15T12:16:37;48.91;47.36;60.68;;
17594;Laerm;8916;47.086;15.920;2024-02-15T12:19:23;48.83;47.58;59.70;;
17594;Laerm;8916;47.086;15.920;2024-02-15T12:21:55;48.83;47.68;60.16;;
17594;Laerm;8916;47.086;15.920;2024-02-15T12:24:26;48.89;47.65;60.38;;
17594;Laerm;8916;47.086;15.920;2024-02-15T12:27:05;48.90;47.61;60.39;;
17594;Laerm;8916;47.086;15.920;2024-02-15T12:29:34;48.87;47.76;60.42;;
17594;Laerm;8916;47.086;15.920;2024-02-15T12:32:04;48.85;47.59;60.39;;
17594;Laerm;8916;47.086;15.920;2024-02-15T12:34:33;48.88;47.59;60.51;;
17594;Laerm;8916;47.086;15.920;2024-02-15T12:37:07;48.83;47.70;51.39;;
17594;Laerm;8916;47.086;15.920;2024-02-15T12:39:37;48.82;47.57;58.87;;
17594;Laerm;8916;47.086;15.920;2024-02-15T12:42:06;49.48;47.79;52.07;;
17594;Laerm;8916;47.086;15.920;2024-02-15T12:44:43;48.83;47.59;60.08;;
17594;Laerm;8916;47.086;15.920;2024-02-15T12:47:19;48.75;47.59;52.36;;
17594;Laerm;8916;47.086;15.920;2024-02-15T12:49:49;48.93;47.70;59.55;;
17594;Laerm;8916;47.086;15.920;2024-02-15T12:52:39;49.37;47.55;60.63;;
17594;Laerm;8916;47.086;15.920;2024-02-15T12:55:13;48.84;47.70;62.02;;
17594;Laerm;8916;47.086;15.920;2024-02-15T12:57:45;48.84;47.59;61.43;;
17594;Laerm;8916;47.086;15.920;2024-02-15T13:00:19;48.77;47.83;53.89;;
17594;Laerm;8916;47.086;15.920;2024-02-15T13:02:51;48.75;47.57;51.31;;
17594;Laerm;8916;47.086;15.920;2024-02-15T13:05:21;48.77;47.50;55.33;;
17594;Laerm;8916;47.086;15.920;2024-02-15T13:07:53;50.74;47.54;64.01;;
17594;Laerm;8916;47.086;15.920;2024-02-15T13:10:23;48.79;47.46;57.56;;
17594;Laerm;8916;47.086;15.920;2024-02-15T13:12:53;48.77;47.67;57.76;;
17594;Laerm;8916;47.086;15.920;2024-02-15T13:15:24;50.20;47.70;63.36;;
17594;Laerm;8916;47.086;15.920;2024-02-15T13:18:00;48.78;47.59;51.19;;
17594;Laerm;8916;47.086;15.920;2024-02-15T13:20:33;48.88;47.74;57.66;;
17594;Laerm;8916;47.086;15.920;2024-02-15T13:23:08;48.84;47.59;57.73;;
17594;Laerm;8916;47.086;15.920;2024-02-15T13:25:42;48.81;47.72;49.95;;
17594;Laerm;8916;47.086;15.920;2024-02-15T13:28:12;48.84;47.63;57.11;;
17594;Laerm;8916;47.086;15.920;2024-02-15T13:30:42;48.83;47.67;51.07;;
17594;Laerm;8916;47.086;15.920;2024-02-15T13:33:13;48.84;47.86;50.13;;
17594;Laerm;8916;47.086;15.920;2024-02-15T13:35:42;48.89;47.76;56.69;;
17594;Laerm;8916;47.086;15.920;2024-02-15T13:38:13;48.87;47.84;56.69;;
17594;Laerm;8916;47.086;15.920;2024-02-15T13:40:51;48.89;47.83;56.76;;
17594;Laerm;8916;47.086;15.920;2024-02-15T13:43:23;48.88;47.72;56.56;;
17594;Laerm;8916;47.086;15.920;2024-02-15T13:45:52;48.86;47.59;50.15;;
17594;Laerm;8916;47.086;15.920;2024-02-15T13:48:22;48.90;47.68;58.95;;
17594;Laerm;8916;47.086;15.920;2024-02-15T13:50:52;48.87;47.68;51.30;;
17594;Laerm;8916;47.086;15.920;2024-02-15T13:53:23;48.86;47.77;50.10;;
17594;Laerm;8916;47.086;15.920;2024-02-15T13:55:53;48.85;47.81;50.00;;
17594;Laerm;8916;47.086;15.920;2024-02-15T13:58:22;48.86;47.65;50.09;;
17594;Laerm;8916;47.086;15.920;2024-02-15T14:00:52;48.86;47.74;50.03;;
17594;Laerm;8916;47.086;15.920;2024-02-15T14:03:21;48.88;47.72;49.98;;
17594;Laerm;8916;47.086;15.920;2024-02-15T14:05:50;48.87;47.76;50.14;;
17594;Laerm;8916;47.086;15.920;2024-02-15T14:08:20;48.88;47.83;50.05;;
17594;Laerm;8916;47.086;15.920;2024-02-15T14:10:52;48.89;47.70;50.15;;